createdAt,value
2019-01-20T00:00:08.913Z,37.10
2019-01-20T00:01:08.934Z,38.50
2019-01-20T00:02:08.957Z,40.50
2019-01-20T00:03:08.978Z,36.40
2019-01-20T00:04:08.999Z,38.20
2019-01-20T00:05:09.022Z,39.40
2019-01-20T00:06:09.043Z,43.80
2019-01-20T00:07:09.064Z,46.00
2019-01-20T00:08:09.087Z,40.80
2019-01-20T00:09:09.110Z,41.50
2019-01-20T00:10:09.129Z,42.10
2019-01-20T00:11:16.367Z,46.50
2019-01-20T00:12:09.174Z,45.60
2019-01-20T00:13:09.198Z,42.90
2019-01-20T00:14:09.216Z,40.00
2019-01-20T00:15:09.238Z,43.70
2019-01-20T00:16:09.261Z,36.40
2019-01-20T00:17:09.282Z,43.10
2019-01-20T00:18:09.303Z,45.00
2019-01-20T00:19:09.326Z,42.50
2019-01-20T00:20:09.379Z,49.00
2019-01-20T00:21:09.369Z,46.90
2019-01-20T00:22:09.390Z,42.10
2019-01-20T00:23:09.413Z,38.70
2019-01-20T00:24:09.435Z,46.40
2019-01-20T00:25:09.496Z,42.90
2019-01-20T00:26:09.477Z,41.60
2019-01-20T00:27:09.500Z,44.00
2019-01-20T00:28:09.522Z,43.00
2019-01-20T00:29:09.544Z,41.80
2019-01-20T00:30:09.564Z,38.80
2019-01-20T00:31:09.587Z,47.30
2019-01-20T00:32:09.609Z,44.50
2019-01-20T00:33:09.629Z,41.00
2019-01-20T00:34:09.669Z,42.50
2019-01-20T00:35:09.674Z,40.90
2019-01-20T00:36:09.696Z,38.90
2019-01-20T00:37:09.718Z,41.50
2019-01-20T00:38:09.740Z,37.90
2019-01-20T00:39:09.761Z,42.80
2019-01-20T00:40:09.784Z,38.40
2019-01-20T00:41:09.805Z,40.70
2019-01-20T00:42:09.826Z,38.60
2019-01-20T00:43:09.848Z,42.50
2019-01-20T00:44:09.870Z,38.10
2019-01-20T00:45:09.903Z,39.50
2019-01-20T00:46:09.913Z,40.40
2019-01-20T00:47:09.935Z,38.50
2019-01-20T00:48:09.958Z,42.80
2019-01-20T00:49:09.979Z,41.40
2019-01-20T00:50:10.001Z,39.60
2019-01-20T00:51:10.024Z,43.10
2019-01-20T00:52:10.046Z,40.50
2019-01-20T00:53:10.068Z,41.10
2019-01-20T00:54:10.090Z,36.10
2019-01-20T00:55:10.111Z,39.20
2019-01-20T00:56:10.133Z,35.90
2019-01-20T00:57:10.155Z,38.40
2019-01-20T00:58:10.178Z,38.00
2019-01-20T00:59:10.199Z,38.90
2019-01-20T01:00:10.221Z,37.50
2019-01-20T01:01:10.243Z,38.30
2019-01-20T01:02:10.266Z,37.80
2019-01-20T01:03:10.288Z,36.50
2019-01-20T01:04:10.310Z,41.60
2019-01-20T01:05:10.332Z,39.20
2019-01-20T01:06:10.357Z,39.50
2019-01-20T01:07:10.375Z,35.60
2019-01-20T01:08:10.397Z,40.00
2019-01-20T01:09:10.419Z,37.00
2019-01-20T01:10:10.441Z,35.90
2019-01-20T01:11:10.462Z,37.70
2019-01-20T01:12:10.487Z,37.40
2019-01-20T01:13:10.508Z,35.00
2019-01-20T01:14:10.529Z,37.70
2019-01-20T01:15:10.555Z,34.30
2019-01-20T01:16:10.574Z,34.70
2019-01-20T01:17:10.596Z,35.10
2019-01-20T01:18:10.618Z,33.20
2019-01-20T01:19:10.640Z,38.20
2019-01-20T01:20:10.661Z,36.40
2019-01-20T01:21:10.685Z,35.10
2019-01-20T01:22:10.707Z,35.60
2019-01-20T01:23:10.729Z,35.20
2019-01-20T01:24:10.751Z,38.10
2019-01-20T01:25:10.774Z,34.50
2019-01-20T01:26:10.795Z,36.70
2019-01-20T01:27:10.818Z,39.60
2019-01-20T01:28:10.841Z,36.70
2019-01-20T01:29:10.862Z,35.40
2019-01-20T01:30:10.884Z,35.40
2019-01-20T01:31:10.906Z,35.30
2019-01-20T01:32:10.929Z,36.20
2019-01-20T01:33:10.952Z,35.80
2019-01-20T01:34:10.973Z,31.80
2019-01-20T01:35:10.995Z,34.30
2019-01-20T01:36:11.018Z,35.10
2019-01-20T01:37:11.041Z,32.80
2019-01-20T01:38:11.062Z,32.10
2019-01-20T01:39:11.088Z,33.40
2019-01-20T01:40:11.108Z,33.60
2019-01-20T01:41:11.130Z,34.50
2019-01-20T01:42:11.158Z,35.60
2019-01-20T01:43:11.173Z,32.30
2019-01-20T01:44:11.197Z,33.90
2019-01-20T01:45:11.219Z,33.30
2019-01-20T01:46:11.241Z,34.30
2019-01-20T01:47:11.264Z,30.00
2019-01-20T01:48:11.286Z,31.50
2019-01-20T01:49:11.308Z,33.70
2019-01-20T01:50:11.331Z,31.70
2019-01-20T01:51:11.354Z,32.20
2019-01-20T01:52:11.374Z,33.70
2019-01-20T01:53:11.398Z,35.70
2019-01-20T01:54:11.421Z,35.20
2019-01-20T01:55:11.443Z,36.20
2019-01-20T01:56:11.465Z,32.60
2019-01-20T01:57:11.489Z,33.10
2019-01-20T01:58:11.510Z,32.60
2019-01-20T01:59:11.532Z,34.00
2019-01-20T02:00:11.557Z,31.80
2019-01-20T02:01:11.580Z,35.80
2019-01-20T02:02:11.601Z,33.10
2019-01-20T02:03:11.623Z,33.20
2019-01-20T02:04:11.646Z,40.40
2019-01-20T02:05:11.668Z,34.90
2019-01-20T02:06:11.694Z,30.60
2019-01-20T02:07:11.712Z,33.30
2019-01-20T02:08:11.736Z,31.50
2019-01-20T02:09:11.761Z,31.60
2019-01-20T02:10:11.781Z,32.70
2019-01-20T02:11:11.804Z,29.90
2019-01-20T02:12:11.826Z,31.50
2019-01-20T02:13:11.850Z,34.60
2019-01-20T02:14:11.873Z,32.70
2019-01-20T02:15:11.894Z,33.30
2019-01-20T02:16:11.918Z,33.80
2019-01-20T02:17:11.940Z,29.50
2019-01-20T02:18:11.965Z,29.60
2019-01-20T02:19:11.986Z,31.10
2019-01-20T02:20:12.008Z,32.20
2019-01-20T02:21:12.032Z,28.90
2019-01-20T02:22:12.054Z,30.00
2019-01-20T02:23:12.076Z,32.60
2019-01-20T02:24:12.099Z,32.10
2019-01-20T02:25:12.123Z,29.50
2019-01-20T02:26:12.144Z,28.20
2019-01-20T02:27:12.168Z,32.00
2019-01-20T02:28:12.190Z,31.20
2019-01-20T02:29:12.213Z,33.10
2019-01-20T02:30:12.241Z,30.00
2019-01-20T02:31:12.260Z,30.90
2019-01-20T02:32:12.287Z,34.00
2019-01-20T02:33:12.304Z,32.80
2019-01-20T02:34:12.327Z,33.80
2019-01-20T02:35:12.350Z,32.50
2019-01-20T02:36:12.373Z,31.10
2019-01-20T02:37:12.397Z,30.00
2019-01-20T02:38:12.420Z,29.10
2019-01-20T02:39:12.442Z,30.50
2019-01-20T02:40:12.466Z,32.10
2019-01-20T02:41:12.487Z,30.70
2019-01-20T02:42:12.512Z,34.50
2019-01-20T02:43:12.537Z,28.60
2019-01-20T02:44:12.555Z,31.80
2019-01-20T02:45:12.578Z,30.80
2019-01-20T02:46:12.603Z,32.40
2019-01-20T02:47:12.625Z,34.40
2019-01-20T02:48:12.647Z,30.00
2019-01-20T02:49:12.671Z,31.80
2019-01-20T02:50:12.697Z,31.90
2019-01-20T02:51:12.715Z,34.10
2019-01-20T02:52:12.737Z,37.40
2019-01-20T02:53:12.761Z,30.90
2019-01-20T02:54:12.784Z,35.60
2019-01-20T02:55:12.806Z,34.00
2019-01-20T02:56:12.829Z,37.80
2019-01-20T02:57:12.852Z,34.40
2019-01-20T02:58:12.875Z,35.20
2019-01-20T02:59:12.897Z,33.50
2019-01-20T03:00:12.921Z,41.60
2019-01-20T03:01:12.943Z,42.80
2019-01-20T03:02:12.967Z,34.10
2019-01-20T03:03:12.988Z,38.10
2019-01-20T03:04:13.012Z,40.50
2019-01-20T03:05:13.034Z,38.10
2019-01-20T03:06:13.059Z,35.70
2019-01-20T03:07:13.079Z,40.40
2019-01-20T03:08:13.102Z,41.00
2019-01-20T03:09:13.126Z,39.70
2019-01-20T03:10:13.146Z,39.20
2019-01-20T03:11:13.170Z,40.20
2019-01-20T03:12:13.192Z,43.10
2019-01-20T03:13:13.215Z,42.50
2019-01-20T03:14:13.238Z,50.20
2019-01-20T03:15:13.260Z,41.60
2019-01-20T03:16:13.284Z,43.70
2019-01-20T03:17:13.306Z,39.60
2019-01-20T03:18:13.330Z,41.30
2019-01-20T03:19:13.351Z,42.20
2019-01-20T03:20:13.383Z,46.30
2019-01-20T03:21:13.397Z,41.70
2019-01-20T03:22:13.419Z,44.40
2019-01-20T03:23:13.442Z,51.30
2019-01-20T03:24:13.464Z,42.80
2019-01-20T03:25:13.490Z,48.80
2019-01-20T03:26:13.510Z,49.00
2019-01-20T03:27:13.535Z,47.30
2019-01-20T03:28:13.561Z,48.30
2019-01-20T03:29:13.579Z,51.30
2019-01-20T03:30:13.601Z,50.50
2019-01-20T03:31:13.629Z,58.00
2019-01-20T03:32:13.648Z,54.60
2019-01-20T03:33:13.674Z,48.70
2019-01-20T03:34:13.692Z,60.10
2019-01-20T03:35:13.713Z,57.40
2019-01-20T03:36:13.737Z,57.20
2019-01-20T03:37:13.759Z,57.40
2019-01-20T03:38:13.781Z,52.70
2019-01-20T03:39:13.804Z,57.90
2019-01-20T03:40:13.826Z,56.70
2019-01-20T03:41:13.852Z,58.20
2019-01-20T03:42:13.872Z,57.20
2019-01-20T03:43:13.893Z,57.30
2019-01-20T03:44:13.917Z,58.50
2019-01-20T03:45:13.940Z,55.40
2019-01-20T03:46:13.960Z,55.60
2019-01-20T03:47:13.985Z,57.50
2019-01-20T03:48:14.007Z,54.40
2019-01-20T03:49:14.031Z,53.30
2019-01-20T03:50:14.052Z,54.60
2019-01-20T03:51:14.075Z,57.50
2019-01-20T03:52:14.099Z,54.10
2019-01-20T03:53:14.121Z,53.00
2019-01-20T03:54:14.143Z,54.80
2019-01-20T03:55:14.169Z,56.10
2019-01-20T03:56:14.190Z,53.90
2019-01-20T03:57:14.216Z,50.40
2019-01-20T03:58:14.233Z,54.30
2019-01-20T03:59:14.259Z,48.70
2019-01-20T04:00:14.281Z,55.70
2019-01-20T04:01:14.303Z,55.20
2019-01-20T04:02:14.324Z,57.80
2019-01-20T04:03:14.350Z,54.10
2019-01-20T04:04:14.372Z,54.50
2019-01-20T04:05:14.393Z,54.10
2019-01-20T04:06:14.416Z,51.90
2019-01-20T04:07:14.438Z,47.70
2019-01-20T04:08:14.461Z,50.10
2019-01-20T04:09:14.485Z,52.80
2019-01-20T04:10:14.507Z,51.80
2019-01-20T04:11:14.531Z,45.80
2019-01-20T04:12:20.465Z,44.60
2019-01-20T04:13:14.575Z,47.80
2019-01-20T04:14:14.597Z,46.70
2019-01-20T04:15:14.625Z,48.40
2019-01-20T04:16:14.643Z,41.40
2019-01-20T04:17:14.670Z,48.20
2019-01-20T04:18:14.688Z,45.10
2019-01-20T04:19:14.717Z,44.40
2019-01-20T04:20:14.734Z,48.30
2019-01-20T04:21:14.761Z,46.30
2019-01-20T04:22:14.779Z,43.80
2019-01-20T04:23:14.806Z,45.80
2019-01-20T04:24:14.825Z,40.70
2019-01-20T04:25:14.849Z,41.70
2019-01-20T04:26:14.870Z,42.20
2019-01-20T04:27:14.894Z,42.40
2019-01-20T04:28:14.916Z,42.60
2019-01-20T04:29:14.940Z,41.40
2019-01-20T04:30:14.961Z,42.60
2019-01-20T04:31:14.986Z,41.80
2019-01-20T04:32:15.007Z,43.20
2019-01-20T04:33:15.031Z,40.70
2019-01-20T04:34:15.052Z,41.80
2019-01-20T04:35:15.081Z,37.70
2019-01-20T04:36:15.098Z,44.80
2019-01-20T04:37:15.122Z,42.90
2019-01-20T04:38:15.144Z,43.00
2019-01-20T04:39:15.166Z,42.60
2019-01-20T04:40:15.191Z,38.40
2019-01-20T04:41:15.212Z,37.90
2019-01-20T04:42:15.236Z,39.40
2019-01-20T04:43:15.256Z,44.30
2019-01-20T04:44:15.281Z,42.20
2019-01-20T04:45:15.303Z,39.10
2019-01-20T04:46:15.326Z,35.40
2019-01-20T04:47:15.401Z,35.90
2019-01-20T04:48:15.372Z,35.20
2019-01-20T04:49:15.396Z,38.00
2019-01-20T04:50:15.416Z,37.60
2019-01-20T04:51:15.440Z,38.10
2019-01-20T04:52:15.463Z,36.60
2019-01-20T04:53:15.491Z,39.40
2019-01-20T04:54:15.508Z,38.20
2019-01-20T04:55:15.531Z,33.20
2019-01-20T04:56:15.554Z,32.90
2019-01-20T04:57:15.578Z,38.40
2019-01-20T04:58:15.600Z,36.70
2019-01-20T04:59:15.623Z,34.20
2019-01-20T05:00:15.647Z,36.40
2019-01-20T05:01:15.670Z,41.00
2019-01-20T05:02:15.698Z,38.60
2019-01-20T05:03:15.716Z,43.30
2019-01-20T05:04:15.741Z,46.20
2019-01-20T05:05:15.761Z,39.60
2019-01-20T05:06:15.788Z,38.50
2019-01-20T05:07:15.808Z,39.70
2019-01-20T05:08:15.830Z,39.10
2019-01-20T05:09:15.853Z,38.10
2019-01-20T05:10:15.878Z,40.60
2019-01-20T05:11:15.899Z,42.50
2019-01-20T05:12:15.922Z,37.70
2019-01-20T05:13:15.946Z,43.30
2019-01-20T05:14:15.969Z,38.80
2019-01-20T05:15:15.992Z,37.10
2019-01-20T05:16:16.014Z,36.90
2019-01-20T05:17:16.038Z,36.00
2019-01-20T05:18:16.060Z,41.20
2019-01-20T05:19:16.085Z,38.10
2019-01-20T05:20:16.112Z,33.80
2019-01-20T05:21:16.132Z,38.50
2019-01-20T05:22:16.153Z,38.70
2019-01-20T05:23:16.193Z,39.80
2019-01-20T05:24:16.200Z,43.20
2019-01-20T05:25:16.222Z,39.50
2019-01-20T05:26:16.253Z,38.90
2019-01-20T05:27:16.269Z,37.60
2019-01-20T05:28:16.291Z,38.00
2019-01-20T05:29:16.313Z,38.40
2019-01-20T05:30:16.339Z,34.30
2019-01-20T05:31:16.361Z,38.00
2019-01-20T05:32:16.383Z,37.60
2019-01-20T05:33:16.406Z,40.30
2019-01-20T05:34:16.429Z,39.80
2019-01-20T05:35:16.460Z,42.10
2019-01-20T05:36:16.475Z,37.80
2019-01-20T05:37:16.500Z,37.70
2019-01-20T05:38:16.521Z,36.70
2019-01-20T05:39:16.544Z,37.80
2019-01-20T05:40:17.486Z,37.90
2019-01-20T05:41:16.591Z,39.40
2019-01-20T05:42:16.614Z,41.40
2019-01-20T05:43:16.650Z,38.90
2019-01-20T05:44:16.662Z,41.00
2019-01-20T05:45:16.685Z,38.50
2019-01-20T05:46:16.704Z,37.70
2019-01-20T05:47:16.730Z,40.80
2019-01-20T05:48:16.757Z,37.80
2019-01-20T05:49:16.776Z,40.50
2019-01-20T05:50:16.798Z,38.40
2019-01-20T05:51:16.822Z,35.70
2019-01-20T05:52:16.845Z,40.20
2019-01-20T05:53:16.869Z,37.10
2019-01-20T05:54:16.893Z,42.70
2019-01-20T05:55:16.918Z,39.60
2019-01-20T05:56:16.937Z,37.00
2019-01-20T05:57:16.959Z,38.20
2019-01-20T05:58:16.983Z,41.30
2019-01-20T05:59:17.005Z,37.50
2019-01-20T06:00:17.032Z,40.40
2019-01-20T06:01:17.053Z,36.80
2019-01-20T06:02:17.073Z,41.20
2019-01-20T06:03:17.103Z,39.50
2019-01-20T06:04:17.122Z,37.30
2019-01-20T06:05:17.145Z,38.70
2019-01-20T06:06:17.167Z,42.60
2019-01-20T06:07:17.190Z,39.10
2019-01-20T06:08:17.222Z,40.00
2019-01-20T06:09:17.240Z,37.00
2019-01-20T06:10:17.260Z,38.40
2019-01-20T06:11:17.283Z,40.60
2019-01-20T06:12:17.306Z,38.20
2019-01-20T06:13:17.328Z,39.10
2019-01-20T06:14:17.351Z,38.60
2019-01-20T06:15:17.374Z,38.50
2019-01-20T06:16:17.396Z,39.60
2019-01-20T06:17:17.422Z,37.80
2019-01-20T06:18:17.452Z,37.40
2019-01-20T06:19:17.467Z,40.10
2019-01-20T06:20:17.489Z,40.40
2019-01-20T06:21:17.512Z,39.90
2019-01-20T06:22:17.536Z,41.10
2019-01-20T06:23:17.558Z,41.20
2019-01-20T06:24:17.582Z,42.60
2019-01-20T06:25:17.634Z,40.30
2019-01-20T06:26:17.630Z,42.10
2019-01-20T06:27:17.649Z,43.90
2019-01-20T06:28:17.672Z,40.60
2019-01-20T06:29:17.697Z,41.20
2019-01-20T06:30:17.718Z,41.30
2019-01-20T06:31:17.740Z,41.50
2019-01-20T06:32:17.764Z,46.40
2019-01-20T06:33:17.786Z,41.30
2019-01-20T06:34:17.808Z,50.80
2019-01-20T06:35:17.833Z,43.10
2019-01-20T06:36:17.857Z,41.40
2019-01-20T06:37:17.878Z,47.30
2019-01-20T06:38:17.900Z,49.90
2019-01-20T06:39:17.922Z,45.50
2019-01-20T06:40:17.945Z,48.00
2019-01-20T06:41:17.968Z,49.10
2019-01-20T06:42:17.990Z,49.60
2019-01-20T06:43:18.014Z,48.70
2019-01-20T06:44:18.036Z,51.20
2019-01-20T06:45:18.059Z,52.30
2019-01-20T06:46:18.082Z,51.30
2019-01-20T06:47:18.104Z,52.20
2019-01-20T06:48:18.127Z,55.00
2019-01-20T06:49:18.152Z,54.40
2019-01-20T06:50:18.173Z,55.90
2019-01-20T06:51:18.194Z,53.90
2019-01-20T06:52:18.217Z,51.60
2019-01-20T06:53:18.240Z,54.60
2019-01-20T06:54:18.262Z,51.60
2019-01-20T06:55:18.284Z,56.70
2019-01-20T06:56:18.307Z,50.90
2019-01-20T06:57:18.330Z,59.80
2019-01-20T06:58:18.352Z,57.10
2019-01-20T06:59:18.375Z,57.10
2019-01-20T07:00:18.399Z,55.10
2019-01-20T07:01:18.420Z,61.00
2019-01-20T07:02:18.442Z,56.30
2019-01-20T07:03:18.463Z,56.20
2019-01-20T07:04:18.487Z,56.20
2019-01-20T07:05:18.514Z,62.70
2019-01-20T07:06:18.532Z,58.10
2019-01-20T07:07:18.555Z,59.20
2019-01-20T07:08:18.578Z,63.20
2019-01-20T07:09:18.600Z,60.80
2019-01-20T07:10:18.622Z,61.20
2019-01-20T07:11:18.643Z,62.70
2019-01-20T07:12:18.668Z,61.50
2019-01-20T07:13:18.693Z,67.50
2019-01-20T07:14:18.713Z,62.50
2019-01-20T07:15:18.738Z,67.00
2019-01-20T07:16:18.758Z,67.50
2019-01-20T07:17:18.785Z,66.10
2019-01-20T07:18:18.802Z,77.60
2019-01-20T07:19:18.826Z,58.70
2019-01-20T07:20:18.849Z,60.90
2019-01-20T07:21:18.874Z,57.60
2019-01-20T07:22:18.893Z,64.30
2019-01-20T07:23:18.916Z,69.40
2019-01-20T07:24:18.938Z,59.60
2019-01-20T07:25:18.963Z,51.20
2019-01-20T07:26:18.984Z,55.50
2019-01-20T07:27:19.012Z,62.40
2019-01-20T07:28:19.030Z,58.30
2019-01-20T07:29:19.052Z,63.70
2019-01-20T07:30:19.073Z,64.60
2019-01-20T07:31:19.098Z,60.40
2019-01-20T07:32:19.120Z,62.60
2019-01-20T07:33:19.145Z,66.00
2019-01-20T07:34:19.166Z,68.80
2019-01-20T07:35:19.188Z,60.40
2019-01-20T07:36:19.211Z,59.10
2019-01-20T07:37:19.236Z,64.60
2019-01-20T07:38:19.257Z,65.80
2019-01-20T07:39:19.280Z,66.10
2019-01-20T07:40:19.334Z,64.70
2019-01-20T07:41:19.327Z,64.90
2019-01-20T07:42:19.347Z,66.30
2019-01-20T07:43:19.370Z,62.10
2019-01-20T07:44:19.393Z,61.70
2019-01-20T07:45:19.416Z,64.30
2019-01-20T07:46:19.439Z,64.80
2019-01-20T07:47:19.465Z,63.10
2019-01-20T07:48:19.490Z,60.10
2019-01-20T07:49:19.508Z,53.30
2019-01-20T07:50:19.530Z,54.80
2019-01-20T07:51:19.554Z,55.00
2019-01-20T07:52:19.577Z,52.60
2019-01-20T07:53:19.602Z,50.10
2019-01-20T07:54:19.622Z,45.50
2019-01-20T07:55:19.645Z,46.10
2019-01-20T07:56:19.668Z,42.10
2019-01-20T07:57:19.693Z,43.30
2019-01-20T07:58:19.713Z,42.20
2019-01-20T07:59:19.738Z,48.20
2019-01-20T08:00:19.760Z,45.80
2019-01-20T08:01:19.784Z,47.50
2019-01-20T08:02:19.806Z,52.00
2019-01-20T08:03:19.828Z,44.80
2019-01-20T08:04:19.852Z,41.90
2019-01-20T08:05:19.927Z,46.10
2019-01-20T08:06:19.897Z,43.80
2019-01-20T08:07:19.921Z,46.90
2019-01-20T08:08:19.995Z,45.80
2019-01-20T08:09:19.971Z,50.50
2019-01-20T08:10:19.991Z,41.90
2019-01-20T08:11:20.014Z,44.20
2019-01-20T08:12:23.549Z,47.00
2019-01-20T08:13:24.215Z,45.60
2019-01-20T08:14:20.087Z,44.10
2019-01-20T08:15:20.111Z,48.30
2019-01-20T08:16:20.131Z,46.20
2019-01-20T08:17:20.154Z,51.40
2019-01-20T08:18:20.176Z,51.10
2019-01-20T08:19:20.204Z,54.20
2019-01-20T08:20:20.224Z,52.40
2019-01-20T08:21:20.248Z,48.70
2019-01-20T08:22:20.270Z,49.10
2019-01-20T08:23:20.294Z,48.90
2019-01-20T08:24:20.320Z,45.50
2019-01-20T08:25:20.342Z,51.10
2019-01-20T08:26:20.364Z,55.60
2019-01-20T08:27:20.388Z,52.30
2019-01-20T08:28:20.412Z,55.10
2019-01-20T08:29:20.436Z,53.40
2019-01-20T08:30:20.460Z,52.90
2019-01-20T08:31:20.481Z,61.10
2019-01-20T08:32:20.507Z,78.80
2019-01-20T08:33:20.531Z,73.50
2019-01-20T08:34:20.553Z,68.70
2019-01-20T08:35:20.576Z,65.90
2019-01-20T08:36:20.601Z,64.10
2019-01-20T08:37:20.627Z,71.10
2019-01-20T08:38:20.652Z,64.60
2019-01-20T08:39:20.672Z,69.90
2019-01-20T08:40:20.697Z,69.80
2019-01-20T08:41:20.723Z,72.60
2019-01-20T08:42:20.744Z,59.70
2019-01-20T08:43:20.768Z,65.80
2019-01-20T08:44:20.794Z,70.20
2019-01-20T08:45:20.817Z,64.80
2019-01-20T08:46:20.840Z,68.70
2019-01-20T08:47:20.866Z,72.10
2019-01-20T08:48:20.893Z,71.60
2019-01-20T08:49:20.913Z,58.70
2019-01-20T08:50:20.936Z,63.70
2019-01-20T08:51:20.961Z,57.50
2019-01-20T08:52:20.985Z,60.00
2019-01-20T08:53:21.008Z,55.40
2019-01-20T08:54:21.033Z,54.70
2019-01-20T08:55:21.059Z,56.30
2019-01-20T08:56:21.083Z,56.70
2019-01-20T08:57:21.107Z,56.50
2019-01-20T08:58:21.130Z,53.80
2019-01-20T08:59:21.155Z,52.20
2019-01-20T09:00:21.179Z,53.40
2019-01-20T09:01:21.205Z,52.30
2019-01-20T09:02:21.227Z,56.00
2019-01-20T09:03:21.254Z,53.00
2019-01-20T09:04:21.278Z,58.20
2019-01-20T09:05:21.302Z,57.20
2019-01-20T09:06:21.375Z,56.40
2019-01-20T09:07:21.350Z,54.40
2019-01-20T09:08:21.376Z,55.90
2019-01-20T09:09:21.400Z,62.70
2019-01-20T09:10:21.424Z,57.20
2019-01-20T09:11:21.448Z,58.40
2019-01-20T09:12:21.473Z,60.60
2019-01-20T09:13:21.498Z,60.10
2019-01-20T09:14:21.521Z,59.50
2019-01-20T09:15:21.547Z,52.00
2019-01-20T09:16:21.572Z,54.30
2019-01-20T09:17:21.597Z,55.70
2019-01-20T09:18:21.620Z,50.30
2019-01-20T09:19:21.644Z,49.20
2019-01-20T09:20:21.670Z,48.80
2019-01-20T09:21:21.695Z,53.30
2019-01-20T09:22:21.719Z,53.70
2019-01-20T09:23:21.745Z,47.50
2019-01-20T09:24:21.770Z,54.50
2019-01-20T09:25:21.794Z,45.90
2019-01-20T09:26:21.818Z,50.40
2019-01-20T09:27:21.846Z,48.60
2019-01-20T09:28:21.869Z,52.50
2019-01-20T09:29:21.897Z,49.30
2019-01-20T09:30:21.920Z,49.90
2019-01-20T09:31:21.945Z,43.50
2019-01-20T09:32:21.972Z,42.30
2019-01-20T09:33:24.756Z,39.80
2019-01-20T09:34:22.021Z,39.90
2019-01-20T09:35:22.046Z,39.50
2019-01-20T09:36:22.070Z,36.20
2019-01-20T09:37:22.096Z,34.70
2019-01-20T09:38:22.124Z,31.80
2019-01-20T09:39:22.147Z,36.30
2019-01-20T09:40:22.175Z,35.10
2019-01-20T09:41:22.200Z,36.00
2019-01-20T09:42:22.224Z,33.20
2019-01-20T09:43:22.252Z,35.60
2019-01-20T09:44:22.277Z,41.60
2019-01-20T09:45:22.303Z,38.50
2019-01-20T09:46:22.328Z,39.10
2019-01-20T09:47:22.354Z,48.40
2019-01-20T09:48:22.381Z,44.50
2019-01-20T09:49:22.406Z,46.60
2019-01-20T09:50:22.432Z,44.00
2019-01-20T09:51:22.457Z,49.90
2019-01-20T09:52:22.483Z,51.20
2019-01-20T09:53:22.509Z,50.30
2019-01-20T09:54:22.538Z,48.70
2019-01-20T09:55:22.561Z,49.50
2019-01-20T09:56:22.590Z,46.90
2019-01-20T09:57:22.613Z,54.30
2019-01-20T09:58:22.639Z,57.00
2019-01-20T09:59:22.666Z,61.60
2019-01-20T10:00:22.693Z,57.70
2019-01-20T10:01:22.719Z,55.40
2019-01-20T10:02:22.743Z,60.10
2019-01-20T10:03:22.768Z,61.10
2019-01-20T10:04:22.796Z,57.10
2019-01-20T10:05:22.820Z,56.80
2019-01-20T10:06:22.857Z,52.40
2019-01-20T10:07:22.872Z,53.90
2019-01-20T10:08:22.896Z,56.80
2019-01-20T10:09:22.922Z,53.40
2019-01-20T10:10:22.948Z,51.70
2019-01-20T10:11:22.974Z,57.20
2019-01-20T10:12:23.000Z,54.90
2019-01-20T10:13:23.026Z,56.50
2019-01-20T10:14:23.052Z,56.00
2019-01-20T10:15:23.077Z,60.40
2019-01-20T10:16:23.102Z,55.40
2019-01-20T10:17:23.126Z,56.60
2019-01-20T10:18:23.152Z,60.60
2019-01-20T10:19:23.177Z,57.10
2019-01-20T10:20:23.204Z,58.50
2019-01-20T10:21:23.228Z,55.80
2019-01-20T10:22:23.254Z,54.30
2019-01-20T10:23:23.279Z,55.20
2019-01-20T10:24:23.304Z,52.90
2019-01-20T10:25:23.331Z,56.80
2019-01-20T10:26:23.353Z,54.50
2019-01-20T10:27:23.378Z,52.10
2019-01-20T10:28:23.403Z,50.70
2019-01-20T10:29:23.430Z,52.90
2019-01-20T10:30:23.455Z,54.30
2019-01-20T10:31:23.478Z,55.60
2019-01-20T10:32:23.505Z,53.40
2019-01-20T10:33:23.529Z,52.70
2019-01-20T10:34:23.555Z,55.90
2019-01-20T10:35:23.577Z,55.40
2019-01-20T10:36:23.602Z,62.40
2019-01-20T10:37:23.629Z,63.20
2019-01-20T10:38:23.654Z,55.70
2019-01-20T10:39:23.678Z,65.30
2019-01-20T10:40:23.703Z,61.90
2019-01-20T10:41:23.729Z,56.60
2019-01-20T10:42:23.750Z,59.20
2019-01-20T10:43:23.778Z,56.80
2019-01-20T10:44:23.802Z,53.60
2019-01-20T10:45:23.826Z,55.30
2019-01-20T10:46:23.852Z,56.80
2019-01-20T10:47:23.877Z,60.10
2019-01-20T10:48:23.904Z,56.70
2019-01-20T10:49:23.927Z,61.50
2019-01-20T10:50:23.953Z,56.40
2019-01-20T10:51:23.976Z,51.70
2019-01-20T10:52:24.796Z,55.40
2019-01-20T10:53:24.030Z,59.30
2019-01-20T10:54:24.060Z,59.40
2019-01-20T10:55:24.076Z,56.70
2019-01-20T10:56:24.102Z,57.40
2019-01-20T10:57:24.129Z,55.80
2019-01-20T10:58:24.153Z,53.60
2019-01-20T10:59:24.179Z,56.00
2019-01-20T11:00:24.209Z,57.50
2019-01-20T11:01:24.232Z,56.80
2019-01-20T11:02:24.255Z,55.30
2019-01-20T11:03:24.281Z,60.60
2019-01-20T11:04:24.307Z,58.20
2019-01-20T11:05:30.140Z,57.30
2019-01-20T11:06:24.360Z,56.70
2019-01-20T11:07:24.386Z,55.00
2019-01-20T11:08:24.414Z,56.20
2019-01-20T11:09:24.439Z,56.70
2019-01-20T11:10:24.464Z,53.50
2019-01-20T11:11:24.491Z,57.10
2019-01-20T11:12:24.517Z,52.10
2019-01-20T11:13:24.544Z,52.40
2019-01-20T11:14:24.571Z,54.00
2019-01-20T11:15:24.599Z,53.80
2019-01-20T11:16:24.625Z,54.10
2019-01-20T11:17:24.654Z,49.40
2019-01-20T11:18:24.679Z,58.10
2019-01-20T11:19:24.707Z,50.60
2019-01-20T11:20:24.739Z,49.40
2019-01-20T11:21:24.765Z,49.70
2019-01-20T11:22:24.789Z,57.40
2019-01-20T11:23:24.818Z,55.10
2019-01-20T11:24:24.848Z,52.00
2019-01-20T11:25:24.876Z,49.50
2019-01-20T11:26:24.903Z,54.50
2019-01-20T11:27:24.934Z,50.50
2019-01-20T11:28:24.960Z,47.80
2019-01-20T11:29:24.987Z,47.10
2019-01-20T11:30:25.014Z,47.60
2019-01-20T11:31:25.046Z,51.90
2019-01-20T11:32:25.072Z,46.40
2019-01-20T11:33:25.100Z,48.00
2019-01-20T11:34:25.128Z,48.60
2019-01-20T11:35:25.157Z,44.50
2019-01-20T11:36:25.184Z,46.00
2019-01-20T11:37:25.212Z,45.60
2019-01-20T11:38:25.240Z,45.10
2019-01-20T11:39:25.267Z,45.40
2019-01-20T11:40:25.305Z,47.60
2019-01-20T11:41:25.324Z,48.00
2019-01-20T11:42:25.350Z,47.00
2019-01-20T11:43:25.377Z,50.00
2019-01-20T11:44:25.408Z,52.10
2019-01-20T11:45:25.435Z,50.80
2019-01-20T11:46:25.459Z,46.50
2019-01-20T11:47:25.485Z,44.80
2019-01-20T11:48:25.513Z,47.40
2019-01-20T11:49:25.543Z,48.70
2019-01-20T11:50:25.567Z,48.50
2019-01-20T11:51:25.593Z,44.50
2019-01-20T11:52:25.621Z,48.90
2019-01-20T11:53:25.648Z,50.30
2019-01-20T11:54:25.675Z,47.50
2019-01-20T11:55:25.703Z,51.60
2019-01-20T11:56:25.728Z,50.60
2019-01-20T11:57:25.755Z,53.70
2019-01-20T11:58:25.782Z,53.00
2019-01-20T11:59:25.816Z,54.20
2019-01-20T12:00:25.855Z,53.10
2019-01-20T12:01:25.862Z,48.20
2019-01-20T12:02:25.888Z,48.80
2019-01-20T12:03:25.914Z,53.80
2019-01-20T12:04:25.941Z,54.70
2019-01-20T12:05:25.968Z,53.70
2019-01-20T12:06:25.998Z,51.60
2019-01-20T12:07:26.020Z,53.70
2019-01-20T12:08:30.511Z,48.70
2019-01-20T12:09:26.076Z,48.60
2019-01-20T12:10:26.100Z,50.00
2019-01-20T12:11:26.126Z,49.10
2019-01-20T12:12:26.154Z,49.80
2019-01-20T12:13:26.475Z,47.50
2019-01-20T12:14:26.206Z,51.80
2019-01-20T12:15:26.232Z,51.00
2019-01-20T12:16:26.262Z,50.30
2019-01-20T12:17:26.285Z,51.70
2019-01-20T12:18:26.310Z,52.20
2019-01-20T12:19:26.337Z,48.60
2019-01-20T12:20:26.363Z,48.80
2019-01-20T12:21:26.389Z,46.20
2019-01-20T12:22:26.420Z,49.30
2019-01-20T12:23:26.441Z,49.80
2019-01-20T12:24:26.473Z,52.30
2019-01-20T12:25:26.492Z,53.20
2019-01-20T12:26:26.518Z,53.60
2019-01-20T12:27:26.543Z,52.50
2019-01-20T12:28:26.570Z,53.20
2019-01-20T12:29:26.597Z,57.60
2019-01-20T12:30:26.622Z,60.50
2019-01-20T12:31:26.651Z,56.90
2019-01-20T12:32:26.672Z,54.20
2019-01-20T12:33:26.697Z,57.20
2019-01-20T12:34:26.727Z,55.00
2019-01-20T12:35:26.748Z,56.70
2019-01-20T12:36:26.775Z,57.10
2019-01-20T12:37:26.799Z,57.00
2019-01-20T12:38:26.826Z,55.60
2019-01-20T12:39:26.880Z,56.30
2019-01-20T12:40:26.876Z,57.40
2019-01-20T12:41:26.903Z,59.50
2019-01-20T12:42:26.927Z,56.10
2019-01-20T12:43:26.952Z,56.60
2019-01-20T12:44:31.390Z,56.00
2019-01-20T12:45:27.003Z,55.60
2019-01-20T12:46:27.028Z,57.00
2019-01-20T12:47:27.056Z,61.70
2019-01-20T12:48:27.082Z,55.30
2019-01-20T12:49:27.105Z,57.20
2019-01-20T12:50:27.132Z,55.20
2019-01-20T12:51:28.595Z,61.40
2019-01-20T12:52:27.181Z,59.60